Time;durP1;ratioP1;P1;durP2;ratioP2;P2;SDS_P1;SDS_P2;PMS_P1;PMS_P2;Temp;Humidity;BMP_temperature;BMP_pressure;BME280_temperature;BME280_humidity;BME280_pressure;Samples;Min_cycle;Max_cycle;Signal;HPM_P1;HPM_P2
2022/06/13 00:01:39;;;;;;;18.00;11.87;;;20.00;99.90;;;;;;5092766;28;20211;-69
2022/06/13 00:04:08;;;;;;;17.37;11.60;;;19.90;99.90;;;;;;5092588;28;20546;-68
2022/06/13 00:06:36;;;;;;;16.30;10.90;;;19.90;99.90;;;;;;5092642;28;20266;-68
2022/06/13 00:09:05;;;;;;;16.40;10.13;;;19.90;99.90;;;;;;5091961;28;20220;-68
2022/06/13 00:11:32;;;;;;;16.97;11.17;;;19.90;99.90;;;;;;5092145;28;20295;-68
2022/06/13 00:13:59;;;;;;;16.90;11.10;;;19.90;99.90;;;;;;5091970;28;20216;-68
2022/06/13 00:16:27;;;;;;;18.60;11.17;;;19.90;99.90;;;;;;5092015;28;20215;-69
2022/06/13 00:18:54;;;;;;;16.43;10.23;;;19.80;99.90;;;;;;5091263;28;20311;-69
2022/06/13 00:21:25;;;;;;;18.83;10.57;;;19.80;99.90;;;;;;5091973;28;20294;-68
2022/06/13 00:23:54;;;;;;;15.20;9.80;;;19.80;99.90;;;;;;5091863;28;20276;-68
2022/06/13 00:26:22;;;;;;;14.70;10.10;;;19.70;99.90;;;;;;5091906;28;20632;-68
2022/06/13 00:28:49;;;;;;;14.00;9.33;;;19.70;99.90;;;;;;5090958;28;20292;-68
2022/06/13 00:31:16;;;;;;;16.23;10.07;;;19.70;99.90;;;;;;5092387;28;20294;-68
2022/06/13 00:33:43;;;;;;;13.33;9.47;;;19.70;99.90;;;;;;5091933;28;20256;-68
2022/06/13 00:36:10;;;;;;;16.13;9.90;;;19.60;99.90;;;;;;5091188;28;20693;-70
2022/06/13 00:38:38;;;;;;;12.37;8.70;;;19.60;99.90;;;;;;5092201;28;20211;-69
2022/06/13 00:41:09;;;;;;;15.10;9.00;;;19.60;99.90;;;;;;5091613;28;20208;-69
2022/06/13 00:43:37;;;;;;;17.87;10.10;;;19.50;99.90;;;;;;5092151;28;20279;-69
2022/06/13 00:46:20;;;;;;;16.40;10.67;;;19.40;99.90;;;;;;5091278;28;20560;-68
2022/06/13 00:48:48;;;;;;;13.80;9.73;;;19.40;99.90;;;;;;5091423;28;20207;-69
2022/06/13 00:51:15;;;;;;;14.03;10.30;;;19.30;99.90;;;;;;5091665;28;20208;-69
2022/06/13 00:53:43;;;;;;;17.17;11.03;;;19.30;99.90;;;;;;5091986;28;20207;-69
2022/06/13 00:56:14;;;;;;;16.73;11.50;;;19.30;99.90;;;;;;5091641;28;20566;-69
2022/06/13 00:58:46;;;;;;;20.43;11.20;;;19.30;99.90;;;;;;5091434;28;20664;-68
2022/06/13 01:01:14;;;;;;;16.40;10.60;;;19.30;99.90;;;;;;5091884;28;20278;-68
2022/06/13 01:03:43;;;;;;;16.07;10.47;;;19.20;99.90;;;;;;5091405;28;20293;-68
2022/06/13 01:06:10;;;;;;;17.30;9.90;;;19.20;99.90;;;;;;5091349;28;20257;-69
2022/06/13 01:08:39;;;;;;;16.07;10.40;;;19.20;99.90;;;;;;5090214;28;20201;-68
2022/06/13 01:11:17;;;;;;;20.17;10.30;;;19.10;99.90;;;;;;5090416;28;20847;-68
2022/06/13 01:14:39;;;;;;;15.47;10.50;;;19.10;99.90;;;;;;5091351;28;20301;-68
2022/06/13 01:17:31;;;;;;;15.23;9.70;;;19.10;99.90;;;;;;5028926;28;20298;-68
2022/06/13 01:20:41;;;;;;;15.57;8.97;;;19.10;99.90;;;;;;5028312;28;20740;-70
2022/06/13 01:23:39;;;;;;;14.47;9.23;;;19.00;99.90;;;;;;4969998;28;20203;-69
2022/06/13 01:26:45;;;;;;;12.00;9.17;;;19.00;99.90;;;;;;4988809;28;20746;-68
2022/06/13 01:29:44;;;;;;;14.17;9.30;;;18.90;99.90;;;;;;4989377;28;20208;-68
2022/06/13 01:32:20;;;;;;;13.50;9.10;;;18.80;99.90;;;;;;4989012;28;20200;-69
2022/06/13 01:34:56;;;;;;;12.57;8.37;;;18.80;99.90;;;;;;4989202;28;20297;-68
2022/06/13 01:37:37;;;;;;;12.00;8.63;;;18.70;99.90;;;;;;4989357;28;20616;-68
2022/06/13 01:40:13;;;;;;;13.87;9.10;;;18.60;99.90;;;;;;4989376;28;20307;-69
2022/06/13 01:42:49;;;;;;;15.60;9.00;;;18.60;99.90;;;;;;4988901;28;20238;-69
2022/06/13 01:45:28;;;;;;;12.60;8.77;;;18.60;99.90;;;;;;4988584;28;20194;-67
2022/06/13 01:48:02;;;;;;;13.30;9.43;;;18.50;99.90;;;;;;5014875;28;20300;-68
2022/06/13 01:50:33;;;;;;;13.07;9.10;;;18.50;99.90;;;;;;5048476;28;20277;-69
2022/06/13 01:53:07;;;;;;;14.27;8.80;;;18.50;99.90;;;;;;5049511;28;20244;-69
2022/06/13 01:55:41;;;;;;;13.87;9.67;;;18.50;99.90;;;;;;5090576;28;20283;-69
2022/06/13 01:58:15;;;;;;;13.17;9.70;;;18.50;99.90;;;;;;5090243;28;20312;-68
2022/06/13 02:00:48;;;;;;;13.23;9.63;;;18.50;99.90;;;;;;5090920;28;20196;-68
2022/06/13 02:03:20;;;;;;;15.17;9.30;;;18.50;99.90;;;;;;5091213;28;20624;-69
2022/06/13 02:05:52;;;;;;;13.13;9.47;;;18.40;99.90;;;;;;5070602;28;20214;-69
2022/06/13 02:08:22;;;;;;;14.57;9.33;;;18.40;99.90;;;;;;5070910;28;20283;-68
2022/06/13 02:10:55;;;;;;;19.20;9.30;;;18.40;99.90;;;;;;5080923;28;20279;-68
2022/06/13 02:13:29;;;;;;;14.07;9.80;;;18.40;99.90;;;;;;5090855;28;20198;-68
2022/06/13 02:15:59;;;;;;;13.50;9.60;;;18.50;99.90;;;;;;5090195;28;20212;-69
2022/06/13 02:18:32;;;;;;;13.13;9.23;;;18.50;99.90;;;;;;5090939;28;20635;-69
2022/06/13 02:21:07;;;;;;;14.17;9.67;;;18.50;99.90;;;;;;5090971;28;20211;-69
2022/06/13 02:23:39;;;;;;;13.03;9.67;;;18.50;99.90;;;;;;5089856;28;20281;-69
2022/06/13 02:26:09;;;;;;;13.00;8.80;;;18.60;99.90;;;;;;5094558;28;20666;-68
2022/06/13 02:28:43;;;;;;;12.43;8.50;;;18.60;99.90;;;;;;5094283;28;20191;-68
2022/06/13 02:31:14;;;;;;;12.33;8.67;;;18.70;99.90;;;;;;5094180;28;20200;-69
2022/06/13 02:33:48;;;;;;;15.53;9.27;;;18.70;99.90;;;;;;5093866;28;20285;-68
2022/06/13 02:36:19;;;;;;;14.30;9.53;;;18.70;99.90;;;;;;5094460;28;20547;-70
2022/06/13 02:38:53;;;;;;;13.53;9.40;;;18.70;99.90;;;;;;5094022;28;20242;-68
2022/06/13 02:41:23;;;;;;;13.90;9.27;;;18.70;99.90;;;;;;5093924;28;20281;-67
2022/06/13 02:43:56;;;;;;;11.07;8.53;;;18.80;99.90;;;;;;5094106;28;20199;-68
2022/06/13 02:46:29;;;;;;;12.07;8.80;;;18.70;99.90;;;;;;5094306;28;20755;-69
2022/06/13 02:49:05;;;;;;;13.33;9.03;;;18.80;99.90;;;;;;5094469;28;20199;-69
2022/06/13 02:51:47;;;;;;;12.80;8.90;;;18.70;99.90;;;;;;5094108;28;20230;-68
2022/06/13 02:54:20;;;;;;;14.40;9.87;;;18.70;99.90;;;;;;5093860;28;20250;-69
2022/06/13 03:00:05;;;;;;;14.33;9.10;;;18.70;99.90;;;;;;5093843;28;20664;-67
2022/06/13 03:02:44;;;;;;;12.37;9.03;;;18.80;99.90;;;;;;5093780;28;20624;-69
2022/06/13 03:05:25;;;;;;;14.43;9.97;;;18.70;99.90;;;;;;5094142;28;20653;-70
2022/06/13 03:07:58;;;;;;;17.60;11.00;;;18.70;99.90;;;;;;5093592;28;20212;-69
2022/06/13 03:10:35;;;;;;;14.60;9.77;;;18.70;99.90;;;;;;5093612;28;20193;-69
2022/06/13 03:13:05;;;;;;;16.50;10.77;;;18.70;99.90;;;;;;5079874;28;20278;-68
2022/06/13 03:15:41;;;;;;;16.20;10.60;;;18.70;99.90;;;;;;5073044;28;20234;-69
2022/06/13 03:18:15;;;;;;;15.20;10.47;;;18.70;99.90;;;;;;5073036;28;20284;-68
2022/06/13 03:20:49;;;;;;;17.80;11.43;;;18.80;99.90;;;;;;5073147;28;20280;-69
2022/06/13 03:23:24;;;;;;;21.70;12.03;;;18.90;99.90;;;;;;5073293;28;20297;-70
2022/06/13 03:25:56;;;;;;;17.00;11.57;;;18.90;99.90;;;;;;5072782;28;20286;-68
2022/06/13 03:28:28;;;;;;;20.90;11.17;;;18.90;99.90;;;;;;5073096;28;20617;-70
2022/06/13 03:30:59;;;;;;;18.17;11.03;;;18.90;99.90;;;;;;5073011;28;20237;-68
2022/06/13 03:33:43;;;;;;;15.30;11.07;;;19.00;99.90;;;;;;5072753;28;20292;-69
2022/06/13 03:36:17;;;;;;;17.53;11.33;;;19.00;99.90;;;;;;5076579;28;20186;-69
2022/06/13 03:38:50;;;;;;;21.30;12.80;;;19.00;99.90;;;;;;5092772;28;20220;-69
2022/06/13 03:41:20;;;;;;;18.13;11.17;;;19.00;99.90;;;;;;5093035;28;20195;-68
2022/06/13 03:43:54;;;;;;;21.63;13.40;;;19.10;99.90;;;;;;5092356;28;20293;-70
2022/06/13 03:46:26;;;;;;;18.03;11.70;;;19.20;99.90;;;;;;5092147;28;20219;-69
2022/06/13 03:48:58;;;;;;;19.07;11.93;;;19.20;99.90;;;;;;5092971;28;20192;-70
2022/06/13 03:51:30;;;;;;;20.63;12.47;;;19.20;99.90;;;;;;5092420;28;20589;-69
2022/06/13 03:54:02;;;;;;;21.83;12.33;;;19.30;99.90;;;;;;5092933;28;20197;-68
2022/06/13 03:56:32;;;;;;;19.83;13.07;;;19.30;99.90;;;;;;5091909;28;20245;-69
2022/06/13 03:59:04;;;;;;;21.13;13.67;;;19.40;99.90;;;;;;5092875;28;20282;-68
2022/06/13 04:01:35;;;;;;;19.57;12.87;;;19.40;99.90;;;;;;5092303;28;20192;-68
2022/06/13 04:04:03;;;;;;;26.77;14.10;;;19.30;99.90;;;;;;5092227;28;22003;-70
2022/06/13 04:06:35;;;;;;;21.07;12.77;;;19.30;99.90;;;;;;5092137;28;20234;-69
2022/06/13 04:09:04;;;;;;;20.53;13.10;;;19.30;99.90;;;;;;5090970;28;20271;-70
2022/06/13 04:11:45;;;;;;;20.57;11.53;;;19.40;99.90;;;;;;5089910;28;20780;-69
2022/06/13 04:14:33;;;;;;;19.47;11.73;;;19.50;99.90;;;;;;5092058;28;20190;-69
2022/06/13 04:17:12;;;;;;;18.63;11.50;;;19.60;99.90;;;;;;5092196;28;20614;-70
2022/06/13 04:19:52;;;;;;;17.50;11.73;;;19.80;99.90;;;;;;5092168;28;20282;-68
2022/06/13 04:22:28;;;;;;;20.57;11.50;;;19.90;99.90;;;;;;5091989;28;20279;-70
2022/06/13 04:25:01;;;;;;;20.30;10.73;;;20.00;99.90;;;;;;5092134;28;20626;-69
2022/06/13 04:27:34;;;;;;;14.90;10.40;;;20.10;99.90;;;;;;5091889;28;20255;-69
2022/06/13 04:30:09;;;;;;;18.67;11.27;;;20.20;99.90;;;;;;5092364;28;20603;-68
2022/06/13 04:32:44;;;;;;;16.77;10.53;;;20.30;99.90;;;;;;5091965;28;20650;-71
2022/06/13 04:35:11;;;;;;;14.87;9.63;;;20.40;99.90;;;;;;5091602;28;20279;-69
2022/06/13 04:37:41;;;;;;;16.73;11.00;;;20.50;99.90;;;;;;5092145;28;20199;-69
2022/06/13 04:40:14;;;;;;;15.03;10.13;;;20.50;99.90;;;;;;5091652;28;20292;-69
2022/06/13 04:42:43;;;;;;;17.43;10.03;;;20.60;99.90;;;;;;5092115;28;20687;-72
2022/06/13 04:45:19;;;;;;;16.33;10.43;;;20.60;99.90;;;;;;5091192;28;20209;-70
2022/06/13 04:47:48;;;;;;;19.37;10.77;;;20.60;99.90;;;;;;5090898;28;20298;-69
2022/06/13 04:50:18;;;;;;;14.47;9.87;;;20.70;99.90;;;;;;5091617;28;20204;-70
2022/06/13 04:52:51;;;;;;;17.00;10.07;;;20.80;99.90;;;;;;5092059;28;20613;-72
2022/06/13 04:55:24;;;;;;;15.60;9.33;;;20.90;99.90;;;;;;5090905;28;20298;-70
2022/06/13 04:57:52;;;;;;;14.93;9.33;;;21.00;99.90;;;;;;5091192;28;20236;-70
2022/06/13 05:00:20;;;;;;;14.87;9.77;;;21.00;99.90;;;;;;5078101;28;20209;-70
2022/06/13 05:02:50;;;;;;;12.90;9.10;;;21.00;99.90;;;;;;5091215;28;20207;-68
2022/06/13 05:05:37;;;;;;;14.10;9.50;;;21.10;99.90;;;;;;5091677;28;20299;-71
2022/06/13 05:08:24;;;;;;;15.80;9.70;;;21.20;99.90;;;;;;5091952;28;20288;-70
2022/06/13 05:10:54;;;;;;;14.27;9.20;;;21.30;99.90;;;;;;5092320;28;20247;-68
2022/06/13 05:13:22;;;;;;;14.00;9.33;;;21.40;99.90;;;;;;5091515;28;20278;-69
2022/06/13 05:15:56;;;;;;;12.20;8.33;;;21.50;99.90;;;;;;5091036;28;20204;-70
2022/06/13 05:18:35;;;;;;;12.23;8.27;;;21.60;99.90;;;;;;5091095;28;20190;-69
2022/06/13 05:21:18;;;;;;;17.63;8.53;;;21.70;99.90;;;;;;5091558;28;20638;-70
2022/06/13 05:24:07;;;;;;;11.93;7.70;;;21.80;99.90;;;;;;5091283;28;20201;-71
2022/06/13 05:26:34;;;;;;;11.17;7.30;;;21.90;99.90;;;;;;5090914;28;20195;-70
2022/06/13 05:29:00;;;;;;;12.67;7.10;;;22.00;99.90;;;;;;5091341;28;20678;-69
2022/06/13 05:31:28;;;;;;;9.90;6.83;;;22.10;99.90;;;;;;5091040;28;20205;-69
2022/06/13 05:33:56;;;;;;;9.10;6.40;;;22.20;99.90;;;;;;5091121;28;20269;-70
2022/06/13 05:36:26;;;;;;;13.47;6.97;;;22.30;99.90;;;;;;5090916;28;20200;-69
2022/06/13 05:38:56;;;;;;;11.03;7.70;;;22.30;99.90;;;;;;5090781;28;20247;-71
2022/06/13 05:41:24;;;;;;;10.63;6.80;;;22.40;99.90;;;;;;5090953;28;20298;-69
2022/06/13 05:43:51;;;;;;;10.27;6.47;;;22.50;99.90;;;;;;5091410;28;20204;-68
2022/06/13 05:46:29;;;;;;;10.00;6.03;;;22.50;99.90;;;;;;5090704;28;20196;-69
2022/06/13 05:48:56;;;;;;;7.47;5.83;;;22.60;99.90;;;;;;5091314;28;20237;-69
2022/06/13 05:51:23;;;;;;;8.47;6.10;;;22.70;99.90;;;;;;5090501;28;20204;-70
2022/06/13 05:53:50;;;;;;;8.90;5.47;;;22.70;99.90;;;;;;5090557;28;20289;-69
2022/06/13 05:56:20;;;;;;;6.43;5.60;;;22.80;99.90;;;;;;5090799;28;20243;-70
2022/06/13 05:58:47;;;;;;;8.87;6.43;;;22.90;99.90;;;;;;5093706;28;20680;-69
2022/06/13 06:01:14;;;;;;;7.97;5.60;;;23.00;99.90;;;;;;5094234;28;20209;-73
2022/06/13 06:03:41;;;;;;;7.70;5.87;;;23.10;99.90;;;;;;5094751;28;20207;-70
2022/06/13 06:06:12;;;;;;;8.60;5.87;;;23.10;99.90;;;;;;5094855;28;20247;-71
2022/06/13 06:08:41;;;;;;;10.07;6.57;;;23.20;99.90;;;;;;5095025;28;20694;-70
2022/06/13 06:11:08;;;;;;;6.57;5.03;;;23.30;99.90;;;;;;5093813;28;20556;-70
2022/06/13 06:13:37;;;;;;;6.80;5.07;;;23.50;99.90;;;;;;5094779;28;20213;-70
2022/06/13 06:16:04;;;;;;;7.90;5.40;;;23.60;99.90;;;;;;5094565;28;20301;-69
2022/06/13 06:18:33;;;;;;;10.13;6.03;;;23.60;99.90;;;;;;5094505;28;20291;-70
2022/06/13 06:21:00;;;;;;;7.70;5.70;;;23.70;99.90;;;;;;5093467;28;20285;-69
2022/06/13 06:23:27;;;;;;;9.17;5.60;;;23.80;99.90;;;;;;5094530;28;20258;-69
2022/06/13 06:25:58;;;;;;;11.10;5.70;;;23.90;99.90;;;;;;5094818;28;20235;-69
2022/06/13 06:28:26;;;;;;;6.53;5.20;;;23.90;99.90;;;;;;5094590;28;20605;-70
2022/06/13 06:30:57;;;;;;;5.43;4.40;;;23.90;99.90;;;;;;5093969;28;20197;-69
2022/06/13 06:33:24;;;;;;;5.83;4.43;;;23.90;99.90;;;;;;5094301;28;20712;-70
2022/06/13 06:35:51;;;;;;;5.40;4.40;;;23.90;99.90;;;;;;5094487;28;20210;-72
2022/06/13 06:38:19;;;;;;;5.23;4.07;;;24.00;99.90;;;;;;5094745;28;20228;-74
2022/06/13 06:40:46;;;;;;;4.60;4.00;;;24.00;99.90;;;;;;5094580;28;20280;-68
2022/06/13 06:43:13;;;;;;;8.23;5.47;;;24.00;99.90;;;;;;5094295;28;20308;-70
2022/06/13 06:45:41;;;;;;;4.60;3.90;;;24.10;99.90;;;;;;5094289;28;20641;-70
2022/06/13 06:48:14;;;;;;;4.13;3.73;;;24.10;99.90;;;;;;5093831;28;20306;-72
2022/06/13 06:50:44;;;;;;;5.40;3.90;;;24.20;99.90;;;;;;5093791;28;20191;-71
2022/06/13 06:53:11;;;;;;;4.30;3.80;;;24.20;99.90;;;;;;5089878;28;20208;-69
2022/06/13 07:01:11;;;;;;;4.17;3.47;;;24.30;99.90;;;;;;5091759;28;20201;-70
2022/06/13 07:03:40;;;;;;;5.77;3.90;;;24.30;99.90;;;;;;5090631;28;20201;-69
2022/06/13 07:06:08;;;;;;;5.97;3.40;;;24.40;99.90;;;;;;5092887;28;20733;-70
2022/06/13 07:08:35;;;;;;;3.83;3.27;;;24.60;99.90;;;;;;5092054;28;20585;-70
2022/06/13 07:13:45;;;;;;;5.00;3.70;;;24.60;99.90;;;;;;5092121;28;20284;-72
2022/06/13 07:16:12;;;;;;;5.93;3.50;;;24.70;99.90;;;;;;5093523;28;20233;-69
2022/06/13 07:18:42;;;;;;;3.30;3.00;;;24.70;99.90;;;;;;5092896;28;20641;-70
2022/06/13 07:21:09;;;;;;;4.00;3.27;;;24.70;99.90;;;;;;5093585;28;20621;-71
2022/06/13 07:23:36;;;;;;;5.70;3.50;;;24.80;99.90;;;;;;5093590;28;20206;-69
2022/06/13 07:26:04;;;;;;;4.73;3.23;;;24.80;99.90;;;;;;5093250;28;20208;-68
2022/06/13 07:28:31;;;;;;;4.13;3.23;;;24.80;99.90;;;;;;5093280;28;20696;-70
2022/06/13 07:30:58;;;;;;;3.40;3.10;;;24.80;99.90;;;;;;5093087;28;20264;-70
2022/06/13 07:33:25;;;;;;;5.93;3.63;;;24.80;99.90;;;;;;5093266;28;20239;-71
2022/06/13 07:35:54;;;;;;;4.47;3.20;;;24.80;99.90;;;;;;5093213;28;20694;-68
2022/06/13 07:38:20;;;;;;;4.20;3.40;;;24.90;99.90;;;;;;5093049;28;20203;-69
2022/06/13 07:40:49;;;;;;;4.00;3.33;;;25.00;99.90;;;;;;5092751;28;20211;-70
2022/06/13 07:43:27;;;;;;;4.57;3.33;;;25.10;99.90;;;;;;5093122;28;20230;-73
2022/06/13 07:45:57;;;;;;;3.27;2.93;;;25.20;99.90;;;;;;5092225;28;20553;-71
2022/06/13 07:48:24;;;;;;;4.33;3.47;;;25.20;99.90;;;;;;5084956;28;20689;-70
2022/06/13 07:50:52;;;;;;;4.67;3.30;;;25.30;99.90;;;;;;5092386;28;20209;-67
2022/06/13 07:53:19;;;;;;;5.43;3.43;;;25.30;99.90;;;;;;5091803;28;20225;-69
2022/06/13 07:55:46;;;;;;;6.77;3.67;;;25.30;99.90;;;;;;5078103;28;20227;-67
2022/06/13 07:58:17;;;;;;;4.13;3.40;;;25.30;99.90;;;;;;5088183;28;20613;-68
2022/06/13 08:00:46;;;;;;;4.70;3.30;;;25.40;99.90;;;;;;5096185;28;20210;-68
2022/06/13 08:03:18;;;;;;;3.17;2.90;;;25.50;99.90;;;;;;5090822;28;20571;-70
2022/06/13 08:05:45;;;;;;;3.87;3.40;;;25.60;99.90;;;;;;5092517;28;20227;-68
2022/06/13 08:08:14;;;;;;;3.73;3.33;;;25.60;99.90;;;;;;5092309;28;20236;-68
2022/06/13 08:10:41;;;;;;;3.33;3.03;;;25.60;99.90;;;;;;5092730;28;20221;-67
2022/06/13 08:13:08;;;;;;;4.80;2.90;;;25.70;99.90;;;;;;5092508;28;20211;-66
2022/06/13 08:15:35;;;;;;;4.60;3.57;;;25.70;99.90;;;;;;5092118;28;20211;-67
2022/06/13 08:18:02;;;;;;;3.03;2.73;;;25.60;99.90;;;;;;5091671;28;20654;-67
2022/06/13 08:20:29;;;;;;;3.43;3.13;;;25.70;99.90;;;;;;5092585;28;20313;-68
2022/06/13 08:22:58;;;;;;;6.33;2.77;;;25.70;99.90;;;;;;5091824;28;20201;-65
2022/06/13 08:25:29;;;;;;;3.57;2.90;;;25.80;99.90;;;;;;5091778;28;20307;-66
2022/06/13 08:27:56;;;;;;;3.80;2.93;;;25.80;99.90;;;;;;5091550;28;20225;-67
2022/06/13 08:30:22;;;;;;;4.60;2.93;;;25.90;99.90;;;;;;5092367;28;20254;-67
2022/06/13 08:32:50;;;;;;;4.38;3.60;;;25.90;99.90;;;;;;5090406;28;20194;-67
2022/06/13 08:35:17;;;;;;;4.07;3.10;;;25.90;99.90;;;;;;5091909;28;20256;-67
2022/06/13 08:37:44;;;;;;;4.40;3.20;;;25.90;99.90;;;;;;5091808;28;20572;-68
2022/06/13 08:40:12;;;;;;;3.40;3.07;;;25.80;99.90;;;;;;5091982;28;20270;-69
2022/06/13 08:42:47;;;;;;;3.70;3.40;;;25.70;99.90;;;;;;5089466;28;20211;-69
2022/06/13 08:45:19;;;;;;;4.03;3.00;;;25.80;99.90;;;;;;5091982;28;20207;-68
2022/06/13 08:47:48;;;;;;;3.03;2.73;;;25.80;99.90;;;;;;5091211;28;20215;-69
2022/06/13 08:50:28;;;;;;;2.90;2.60;;;25.90;99.90;;;;;;5091830;28;20294;-69
2022/06/13 08:52:57;;;;;;;2.57;2.37;;;26.00;99.90;;;;;;5090910;28;20226;-68
2022/06/13 08:55:32;;;;;;;4.03;2.60;;;26.00;99.90;;;;;;5091935;28;20304;-70
2022/06/13 08:58:11;;;;;;;4.93;2.83;;;26.00;99.90;;;;;;5091235;28;20232;-68
2022/06/13 09:00:45;;;;;;;2.93;2.60;;;26.00;99.90;;;;;;5091772;28;20634;-68
2022/06/13 09:03:16;;;;;;;2.63;2.42;;;26.00;99.90;;;;;;5090642;28;20644;-69
2022/06/13 09:05:50;;;;;;;4.80;2.78;;;26.10;98.90;;;;;;5090524;28;20515;-69
2022/06/13 09:08:23;;;;;;;3.15;2.85;;;26.20;99.40;;;;;;5091403;28;20639;-67
2022/06/13 09:10:55;;;;;;;3.83;3.03;;;26.20;99.90;;;;;;5091421;28;20281;-67
2022/06/13 09:13:29;;;;;;;4.53;3.10;;;26.30;99.90;;;;;;5091501;28;20288;-68
2022/06/13 09:16:03;;;;;;;4.93;2.80;;;26.30;99.90;;;;;;5090979;28;20280;-69
2022/06/13 09:18:37;;;;;;;4.57;2.60;;;26.40;99.70;;;;;;5091232;28;20609;-68
2022/06/13 09:21:12;;;;;;;3.35;2.70;;;26.50;99.20;;;;;;5091367;28;20289;-68
2022/06/13 09:23:47;;;;;;;9.20;3.00;;;26.60;99.00;;;;;;5091294;28;20192;-68
2022/06/13 09:26:18;;;;;;;8.88;6.75;;;26.70;98.90;;;;;;5091799;28;20585;-72
2022/06/13 09:28:52;;;;;;;5.78;2.95;;;26.80;98.30;;;;;;5091376;28;20210;-69
2022/06/13 09:31:30;;;;;;;4.50;2.78;;;26.90;98.10;;;;;;5091087;28;20691;-67
2022/06/13 09:34:04;;;;;;;3.53;3.22;;;27.00;97.60;;;;;;5094025;28;20289;-71
2022/06/13 09:36:35;;;;;;;3.70;3.10;;;27.10;97.70;;;;;;5095814;28;20213;-70
2022/06/13 09:39:05;;;;;;;3.53;3.00;;;27.20;97.80;;;;;;5095872;28;20229;-70
2022/06/13 09:41:45;;;;;;;3.60;3.00;;;27.20;97.50;;;;;;5095080;28;20683;-71
2022/06/13 09:44:25;;;;;;;3.08;2.78;;;27.30;97.60;;;;;;5095715;28;20196;-68
2022/06/13 09:47:03;;;;;;;3.15;2.85;;;27.20;97.00;;;;;;5094612;28;20590;-67
2022/06/13 09:49:37;;;;;;;3.17;2.88;;;27.10;97.00;;;;;;5095092;28;20245;-70
2022/06/13 09:52:13;;;;;;;3.15;2.67;;;27.00;97.10;;;;;;5094199;28;20237;-67
2022/06/13 09:54:56;;;;;;;3.05;2.60;;;27.10;96.90;;;;;;5094573;28;20188;-69
2022/06/13 09:57:32;;;;;;;3.53;2.50;;;27.10;96.70;;;;;;5083573;28;20311;-68
2022/06/13 10:00:14;;;;;;;2.90;2.60;;;27.10;96.50;;;;;;5094801;28;20277;-69
2022/06/13 10:02:56;;;;;;;2.90;2.50;;;27.20;95.40;;;;;;5090086;28;20280;-68
2022/06/13 10:05:35;;;;;;;3.03;2.50;;;27.20;95.50;;;;;;5095162;28;20193;-67
2022/06/13 10:08:11;;;;;;;3.50;2.50;;;27.10;95.30;;;;;;5091999;28;20274;-69
2022/06/13 10:10:47;;;;;;;3.10;2.80;;;27.10;95.10;;;;;;5094422;28;20193;-67
2022/06/13 10:13:23;;;;;;;3.30;2.50;;;27.10;95.10;;;;;;5094692;28;20216;-66
2022/06/13 10:16:03;;;;;;;2.55;2.35;;;27.10;95.00;;;;;;5093958;28;20190;-70
2022/06/13 10:18:45;;;;;;;3.35;2.70;;;27.10;95.10;;;;;;5094431;28;20277;-69
2022/06/13 10:21:20;;;;;;;6.22;2.90;;;27.10;95.20;;;;;;5094560;28;20198;-69
2022/06/13 10:23:58;;;;;;;3.33;2.78;;;27.30;95.10;;;;;;5082363;28;20292;-71
2022/06/13 10:26:30;;;;;;;3.10;2.30;;;27.30;94.30;;;;;;5074692;28;20191;-68
2022/06/13 10:29:10;;;;;;;2.58;2.25;;;27.30;94.00;;;;;;5074544;28;20214;-68
2022/06/13 10:31:53;;;;;;;3.10;2.30;;;27.40;93.40;;;;;;5087467;28;20224;-69
2022/06/13 10:34:27;;;;;;;2.90;2.50;;;27.50;93.20;;;;;;5094194;28;20286;-71
2022/06/13 10:37:03;;;;;;;6.05;2.38;;;27.60;93.50;;;;;;5092502;28;20232;-69
2022/06/13 10:39:31;;;;;;;4.57;2.38;;;27.70;92.00;;;;;;5084628;28;20625;-67
2022/06/13 10:42:04;;;;;;;4.22;1.90;;;27.70;91.10;;;;;;5094311;28;20742;-71
2022/06/13 10:44:33;;;;;;;2.83;2.15;;;27.80;90.20;;;;;;5093562;28;20704;-72
2022/06/13 10:47:08;;;;;;;2.58;2.30;;;27.80;90.50;;;;;;5093437;28;20284;-71
2022/06/13 10:49:40;;;;;;;5.05;2.50;;;27.90;90.90;;;;;;5091239;28;20214;-72
2022/06/13 10:52:14;;;;;;;2.05;1.85;;;28.10;90.70;;;;;;5093859;28;20274;-71
2022/06/13 10:54:46;;;;;;;2.60;2.40;;;27.90;90.80;;;;;;5094324;28;20189;-70
2022/06/13 10:57:17;;;;;;;2.85;2.30;;;27.90;91.20;;;;;;5094020;28;20224;-70
2022/06/13 10:59:44;;;;;;;2.85;2.10;;;27.80;90.90;;;;;;5094589;28;20568;-70
2022/06/13 11:02:25;;;;;;;4.80;2.70;;;27.80;91.20;;;;;;5094058;28;20285;-71
2022/06/13 11:05:07;;;;;;;2.40;2.20;;;27.80;90.40;;;;;;5089415;28;20198;-72
2022/06/13 11:07:36;;;;;;;2.83;2.10;;;27.80;90.50;;;;;;5093511;28;20194;-69
2022/06/13 11:10:04;;;;;;;2.95;2.28;;;27.80;90.50;;;;;;5093350;28;20687;-69
2022/06/13 11:12:33;;;;;;;3.45;2.20;;;27.80;90.50;;;;;;5092912;28;20257;-66
2022/06/13 11:23:29;;;;;;;2.95;2.35;;;27.70;89.30;;;;;;5092755;28;20613;-70
2022/06/13 11:25:59;;;;;;;2.50;2.30;;;27.80;89.20;;;;;;5092827;28;20196;-67
2022/06/13 11:28:29;;;;;;;3.10;2.30;;;27.80;87.90;;;;;;5092554;28;20273;-68
2022/06/13 11:31:11;;;;;;;2.95;2.22;;;27.90;89.20;;;;;;5093390;28;20268;-68
2022/06/13 11:33:40;;;;;;;3.63;2.05;;;27.90;86.60;;;;;;5077424;28;20590;-68
2022/06/13 11:36:22;;;;;;;3.95;2.30;;;28.00;87.40;;;;;;5092573;28;20202;-69
2022/06/13 11:38:54;;;;;;;2.85;2.20;;;28.00;88.50;;;;;;5090353;28;20208;-68
2022/06/13 11:41:24;;;;;;;5.93;2.53;;;28.00;88.50;;;;;;5091769;28;20241;-71
2022/06/13 11:43:55;;;;;;;4.10;2.60;;;28.00;89.00;;;;;;5093444;28;20198;-69
2022/06/13 11:46:42;;;;;;;2.47;2.28;;;28.00;88.50;;;;;;5092986;28;20197;-72
2022/06/13 11:49:34;;;;;;;3.58;2.30;;;28.00;87.90;;;;;;5093399;28;20210;-71
2022/06/13 11:53:35;;;;;;;3.35;2.00;;;28.10;84.90;;;;;;5093184;28;20625;-69
2022/06/13 11:55:15;;;;;;;2.35;2.05;;;28.10;85.90;;;;;;5092430;28;20684;-69
2022/06/13 11:57:43;;;;;;;2.25;1.95;;;28.20;86.10;;;;;;5092774;28;20240;-70
2022/06/13 12:00:24;;;;;;;4.07;2.50;;;28.10;86.60;;;;;;5093043;28;20718;-69
2022/06/13 12:03:04;;;;;;;4.50;2.13;;;28.20;87.20;;;;;;5092709;28;20225;-69
2022/06/13 12:05:35;;;;;;;3.17;2.00;;;28.20;85.90;;;;;;5092657;28;20189;-68
2022/06/13 12:08:04;;;;;;;3.78;2.03;;;28.20;85.70;;;;;;5092919;28;20281;-69
2022/06/13 12:10:34;;;;;;;2.38;2.17;;;28.20;85.10;;;;;;5092270;28;20325;-69
2022/06/13 12:13:01;;;;;;;2.90;2.40;;;28.10;85.60;;;;;;5092748;28;20719;-72
2022/06/13 12:15:37;;;;;;;4.60;2.92;;;28.10;88.40;;;;;;5092228;28;20255;-70
2022/06/13 12:18:14;;;;;;;4.75;2.75;;;28.10;90.40;;;;;;5092792;28;20204;-69
2022/06/13 12:20:49;;;;;;;4.75;3.03;;;28.10;90.90;;;;;;5092828;28;20225;-69
2022/06/13 12:23:27;;;;;;;5.93;2.80;;;28.00;90.30;;;;;;5092454;28;20665;-69
2022/06/13 12:26:01;;;;;;;3.10;2.80;;;28.10;90.20;;;;;;5092335;28;20727;-72
2022/06/13 12:28:39;;;;;;;3.05;2.70;;;28.10;90.00;;;;;;5092468;28;20194;-73
2022/06/13 12:31:12;;;;;;;3.65;2.70;;;28.20;90.30;;;;;;5092863;28;20181;-72
2022/06/13 12:33:50;;;;;;;3.10;2.47;;;28.20;89.80;;;;;;5092193;28;20322;-69
2022/06/13 12:36:36;;;;;;;4.15;2.70;;;28.00;90.20;;;;;;5091914;28;20212;-68
2022/06/13 12:39:20;;;;;;;4.78;3.10;;;28.00;89.80;;;;;;5092364;28;20620;-71
2022/06/13 12:41:57;;;;;;;8.40;3.40;;;28.00;88.60;;;;;;5091840;28;20313;-69
2022/06/13 12:44:42;;;;;;;7.53;2.60;;;27.90;88.80;;;;;;5091780;28;20288;-69
2022/06/13 12:47:26;;;;;;;4.28;2.50;;;27.90;87.80;;;;;;5091914;28;20689;-67
2022/06/13 12:50:31;;;;;;;2.92;2.10;;;27.90;87.50;;;;;;5092072;28;20525;-71
2022/06/13 12:53:16;;;;;;;3.08;2.20;;;27.90;84.00;;;;;;5092090;28;20190;-68
2022/06/13 12:55:52;;;;;;;3.42;2.38;;;27.80;81.50;;;;;;5092047;28;20558;-69
2022/06/13 12:58:40;;;;;;;3.42;2.30;;;27.80;80.10;;;;;;5091300;28;20242;-70
2022/06/13 13:01:13;;;;;;;3.88;2.30;;;27.60;81.00;;;;;;5091793;28;20223;-69
2022/06/13 13:04:12;;;;;;;2.40;2.20;;;27.50;81.60;;;;;;5092062;28;20190;-68
2022/06/13 13:06:48;;;;;;;3.55;2.30;;;27.50;81.80;;;;;;5086145;28;20206;-69
2022/06/13 13:09:49;;;;;;;3.20;2.30;;;27.50;82.00;;;;;;5091424;28;20214;-70
2022/06/13 13:12:31;;;;;;;2.78;2.40;;;27.60;81.70;;;;;;5091816;28;20194;-70
2022/06/13 13:15:05;;;;;;;3.90;2.30;;;27.60;82.40;;;;;;5092049;28;20196;-68
2022/06/13 13:17:41;;;;;;;4.35;2.50;;;27.70;83.10;;;;;;5091918;28;20577;-70
2022/06/13 13:20:12;;;;;;;4.57;2.65;;;27.70;80.70;;;;;;5091828;28;20279;-69
2022/06/13 13:22:49;;;;;;;3.60;2.83;;;27.70;80.60;;;;;;5092017;28;20295;-69
2022/06/13 13:25:26;;;;;;;3.03;2.50;;;27.70;82.80;;;;;;5091420;28;20275;-70
2022/06/13 13:28:03;;;;;;;3.45;2.30;;;27.70;81.90;;;;;;5091925;28;20226;-69
2022/06/13 13:30:34;;;;;;;2.58;2.28;;;27.60;81.50;;;;;;5091795;28;20405;-68
2022/06/13 13:33:15;;;;;;;2.22;2.03;;;27.60;80.70;;;;;;5091330;28;20539;-69